Peristerion, Greece
Current Conditions -  °F | °C
As of 10:50 AM on Monday 22 Dec 2014 (Local Time) from LGEL Reporting Station
Few Clouds Few Clouds  
Wind Chill: 10°   Ceiling: Unl
Heat Index: 10°   Visibility: 6mi
Dew Point:   Wind: 12mph
Humidity: 54%   Direction: 330°NNW
Pressure: 30.42"   Gusts: NA
Location:  38.02°N, 23.7°E
Report Text: LGEL 220750Z 33010KT 9999 FEW025 10/01 Q1030
Loading
Personal Weather Stations






























Interactive Weather Map New forecast layout! Learn more

10-Day Weather Forecast

Advertisements
Track Severe Weather on mobile